Time;durP1;ratioP1;P1;durP2;ratioP2;P2;SDS_P1;SDS_P2;PMS_P1;PMS_P2;Temp;Humidity;BMP_temperature;BMP_pressure;BME280_temperature;BME280_humidity;BME280_pressure;Samples;Min_cycle;Max_cycle;Signal;HPM_P1;HPM_P2
2022/02/03 00:01:37;;;;;;;;;;;;;;;;;;;;;
2022/02/03 00:33:58;;;;;;;;;;;;;;;;;;;;;
2022/02/03 00:49:02;;;;;;;;;;;;;;;4.55;59.37;99913.44;4409543;32;33814;-79
2022/02/03 00:55:22;;;;;;;;;;;;;;;;;;;;;
2022/02/03 01:11:06;;;;;;;;;;;;;;;;;;;;;
2022/02/03 01:44:22;;;;;;;;;;;;;;;4.69;60.00;100060.91;4426024;32;33439;-81
2022/02/03 01:46:59;;;;;;;;;;;;;;;4.92;59.55;100068.16;4419896;32;34888;-82
2022/02/03 01:52:18;;;;;;;;;;;;;;;4.59;60.36;100075.63;4423858;32;34843;-82
2022/02/03 01:54:45;;;;;;;;;;;;;;;4.71;60.08;100074.84;4416717;32;32723;-81
2022/02/03 01:57:13;;;;;;;;;;;;;;;4.69;59.99;100071.44;4417605;32;35370;-81
2022/02/03 01:59:40;;;;;;;;;;;;;;;4.63;60.09;100071.88;4403665;32;33564;-81
2022/02/03 02:02:08;;;;;;;;;;;;;;;4.79;59.08;100075.19;4414456;32;34433;-82
2022/02/03 02:04:36;;;;;;;;;;;;;;;4.76;58.89;100078.88;4415770;32;32453;-81
2022/02/03 02:07:22;;;;;;;;;;;;;;;4.53;59.15;100082.16;4424341;32;34498;-81
2022/02/03 02:10:02;;;;;;;;;;;;;;;4.71;58.83;100085.38;4416554;32;34885;-82
2022/02/03 02:12:47;;;;;;;;;;;;;;;4.40;59.08;100094.44;4426783;32;34397;-81
2022/02/03 02:43:46;;;;;;;;;;;;;;;3.74;59.69;100085.53;4420046;32;35381;-81
2022/02/03 02:46:20;;;;;;;;;;;;;;;3.92;59.33;100081.75;4416046;32;32967;-81
2022/02/03 02:48:48;;;;;;;;;;;;;;;3.82;59.66;100087.66;4417468;32;35449;-81
2022/02/03 02:51:26;;;;;;;;;;;;;;;3.92;59.47;100088.78;4415001;32;34636;-81
2022/02/03 02:54:34;;;;;;;;;;;;;;;3.73;59.85;100082.97;4409625;32;34403;-81
2022/02/03 03:00:24;;;;;;;;;;;;;;;3.89;59.16;100089.81;4422078;32;33254;-81
2022/02/03 03:31:17;;;;;;;;;;;;;;;4.39;57.45;100136.66;4413886;32;34935;-81
2022/02/03 03:36:07;;;;;;;;;;;;;;;4.06;58.29;100151.97;4424215;32;33926;-82
2022/02/03 03:38:36;;;;;;;;;;;;;;;4.12;58.00;100147.16;4415054;32;34966;-81
2022/02/03 03:41:04;;;;;;;;;;;;;;;4.45;57.37;100147.66;4414429;32;34549;-81
2022/02/03 03:43:34;;;;;;;;;;;;;;;4.41;57.23;100151.44;4414741;32;31907;-81
2022/02/03 03:46:15;;;;;;;;;;;;;;;4.12;58.17;100146.28;4435530;32;34488;-81
2022/02/03 03:49:04;;;;;;;;;;;;;;;3.98;58.79;100136.63;4414507;32;35254;-81
2022/02/03 03:51:54;;;;;;;;;;;;;;;3.75;59.24;100144.22;4398847;32;34503;-82
2022/02/03 03:54:35;;;;;;;;;;;;;;;4.11;58.81;100140.19;4419094;32;33283;-81
2022/02/03 04:39:27;;;;;;;;;;;;;;;4.00;59.02;100161.09;4413898;32;32447;-81
2022/02/03 04:53:53;;;;;;;;;;;;;;;3.63;60.52;100181.81;4415943;32;32974;-81
2022/02/03 05:44:21;;;;;;;;;;;;;;;3.91;61.99;100316.94;4337961;32;35716;-81
2022/02/03 06:13:52;;;;;;;;;;;;;;;3.73;62.21;100325.03;4413727;32;34267;-82
2022/02/03 06:16:37;;;;;;;;;;;;;;;3.83;62.28;100321.78;4414181;32;35448;-81
2022/02/03 06:22:22;;;;;;;;;;;;;;;3.84;62.38;100315.59;4414468;32;33440;-81
2022/02/03 06:27:24;;;;;;;;;;;;;;;3.89;62.33;100315.31;4413820;32;33356;-82
2022/02/03 06:27:54;;;;;;;;;;;;;;;3.78;62.66;100318.56;4412653;32;35133;-82
2022/02/03 06:30:21;;;;;;;;;;;;;;;3.93;62.39;100322.94;4413211;32;35221;-81
2022/02/03 06:32:49;;;;;;;;;;;;;;;3.69;63.09;100337.53;4416786;32;33364;-81
2022/02/03 06:35:19;;;;;;;;;;;;;;;3.82;62.90;100335.91;4425299;32;34265;-81
2022/02/03 06:37:48;;;;;;;;;;;;;;;4.00;62.01;100340.09;4413025;32;34813;-82
2022/02/03 06:40:16;;;;;;;;;;;;;;;3.93;62.27;100351.91;4412214;32;34104;-81
2022/02/03 06:42:45;;;;;;;;;;;;;;;4.03;61.79;100350.44;4413502;32;33526;-81
2022/02/03 06:45:23;;;;;;;;;;;;;;;3.96;61.64;100359.59;4418251;32;33519;-81
2022/02/03 06:48:00;;;;;;;;;;;;;;;4.28;60.87;100348.03;4417082;32;35509;-82
2022/02/03 06:50:33;;;;;;;;;;;;;;;4.13;61.28;100371.78;4413875;32;34752;-81
2022/02/03 07:00:43;;;;;;;;;;;;;;;4.74;59.52;100402.28;4432896;27;34699;-77
2022/02/03 07:03:19;;;;;;;;;;;;;;;4.78;59.72;100410.84;4417465;32;34822;-80
2022/02/03 07:05:47;;;;;;;;;;;;;;;4.75;59.72;100411.88;4427544;32;33742;-79
2022/02/03 07:08:17;;;;;;;;;;;;;;;4.47;60.71;100424.16;4414320;32;33993;-79
2022/02/03 07:10:45;;;;;;;;;;;;;;;4.62;60.19;100418.81;4415187;32;33854;-80
2022/02/03 07:13:15;;;;;;;;;;;;;;;4.86;59.77;100417.34;4400214;32;33047;-78
2022/02/03 07:15:42;;;;;;;;;;;;;;;4.95;59.59;100419.44;4413728;32;33247;-77
2022/02/03 07:18:09;;;;;;;;;;;;;;;4.88;59.97;100428.62;4425417;32;34923;-79
2022/02/03 07:20:37;;;;;;;;;;;;;;;4.77;60.28;100419.69;4414070;32;33203;-79
2022/02/03 07:23:06;;;;;;;;;;;;;;;4.86;60.12;100419.13;4425947;32;33580;-79
2022/02/03 07:25:34;;;;;;;;;;;;;;;5.05;59.67;100411.78;4426755;32;34091;-79
2022/02/03 07:28:03;;;;;;;;;;;;;;;5.09;59.58;100419.41;4412958;32;35343;-79
2022/02/03 07:30:30;;;;;;;;;;;;;;;5.02;59.85;100407.56;4425441;32;33915;-79
2022/02/03 07:32:59;;;;;;;;;;;;;;;4.98;59.69;100407.84;4419691;32;34828;-79
2022/02/03 07:35:29;;;;;;;;;;;;;;;4.93;59.95;100412.53;4416169;32;34840;-79
2022/02/03 07:37:56;;;;;;;;;;;;;;;5.00;60.04;100413.87;4422229;32;35094;-79
2022/02/03 07:40:24;;;;;;;;;;;;;;;4.78;60.78;100411.69;4400213;32;33126;-80
2022/02/03 07:42:53;;;;;;;;;;;;;;;4.63;61.42;100419.69;4414234;32;33496;-79
2022/02/03 07:45:22;;;;;;;;;;;;;;;4.84;60.87;100426.28;4423701;32;33526;-79
2022/02/03 07:47:51;;;;;;;;;;;;;;;4.90;60.75;100428.56;4410968;32;34927;-79
2022/02/03 07:50:19;;;;;;;;;;;;;;;4.91;60.53;100441.63;4435298;32;33860;-79
2022/02/03 07:52:46;;;;;;;;;;;;;;;4.77;61.15;100433.72;4414516;32;33786;-80
2022/02/03 07:55:14;;;;;;;;;;;;;;;4.90;60.75;100441.75;4428003;32;33550;-79
2022/02/03 07:57:46;;;;;;;;;;;;;;;5.25;59.86;100450.94;4413504;32;36313;-80
2022/02/03 08:00:15;;;;;;;;;;;;;;;5.31;59.41;100454.06;4415718;32;34406;-81
2022/02/03 08:03:09;;;;;;;;;;;;;;;5.18;60.06;100460.22;4423654;32;33026;-80
2022/02/03 08:05:39;;;;;;;;;;;;;;;5.31;59.75;100458.50;4418335;32;33999;-79
2022/02/03 08:08:30;;;;;;;;;;;;;;;5.62;58.92;100453.84;4413060;32;34908;-79
2022/02/03 08:11:02;;;;;;;;;;;;;;;5.49;59.11;100463.47;4413356;32;34490;-79
2022/02/03 08:13:48;;;;;;;;;;;;;;;5.49;58.80;100464.31;4415322;32;32507;-81
2022/02/03 08:18:55;;;;;;;;;;;;;;;5.43;59.41;100484.97;4419194;32;35896;-79
2022/02/03 08:21:23;;;;;;;;;;;;;;;5.54;58.93;100483.34;4415829;32;35374;-80
2022/02/03 08:31:39;;;;;;;;;;;;;;;6.10;56.75;100480.63;4427012;32;34655;-79
2022/02/03 08:34:10;;;;;;;;;;;;;;;6.46;55.67;100474.69;4413089;32;32858;-81
2022/02/03 08:36:41;;;;;;;;;;;;;;;6.10;55.77;100470.06;4431234;32;34458;-80
2022/02/03 08:39:11;;;;;;;;;;;;;;;6.43;55.74;100467.81;4416894;32;36059;-81
2022/02/03 08:41:38;;;;;;;;;;;;;;;6.39;55.84;100466.34;4424803;32;37100;-80
2022/02/03 08:44:06;;;;;;;;;;;;;;;6.25;54.92;100469.03;4418094;32;33734;-80
2022/02/03 08:46:34;;;;;;;;;;;;;;;6.37;54.16;100451.53;4423585;32;34841;-81
2022/02/03 08:49:05;;;;;;;;;;;;;;;6.24;55.47;100462.06;4439021;32;33469;-81
2022/02/03 08:51:33;;;;;;;;;;;;;;;6.47;55.32;100469.31;4422584;32;34767;-78
2022/02/03 08:54:09;;;;;;;;;;;;;;;6.55;54.65;100474.94;4413644;32;34565;-79
2022/02/03 09:00:10;;;;;;;;;;;;;;;6.74;53.53;100477.19;4442204;32;35808;-82
2022/02/03 09:58:54;;;;;;;;;;;;;;;8.14;50.14;100513.00;4383930;32;36660;-85
2022/02/03 10:10:47;;;;;;;;;;;;;;;8.74;46.99;100501.41;3653468;27;33329;-83
2022/02/03 10:13:23;;;;;;;;;;;;;;;8.14;47.11;100500.63;4360056;32;35080;-81
2022/02/03 10:16:04;;;;;;;;;;;;;;;8.09;48.00;100491.31;4402897;32;33246;-82
2022/02/03 10:18:31;;;;;;;;;;;;;;;8.65;47.42;100495.00;4421833;32;32904;-84
2022/02/03 10:21:01;;;;;;;;;;;;;;;9.06;46.31;100484.72;4444249;32;35241;-83
2022/02/03 10:23:31;;;;;;;;;;;;;;;8.74;46.10;100496.09;4431213;32;33779;-83
2022/02/03 10:26:09;;;;;;;;;;;;;;;8.55;46.36;100490.47;4418820;32;33405;-81
2022/02/03 10:28:58;;;;;;;;;;;;;;;8.69;46.36;100500.91;4420406;32;33649;-81
2022/02/03 10:31:38;;;;;;;;;;;;;;;8.93;45.17;100493.72;4445114;32;35155;-81
2022/02/03 10:34:14;;;;;;;;;;;;;;;8.64;45.05;100489.78;4413935;32;34460;-82
2022/02/03 10:40:27;;;;;;;;;;;;;;;9.15;43.92;100491.97;4430964;32;33796;-81
2022/02/03 10:51:07;;;;;;;;;;;;;;;9.09;44.07;100475.69;4444892;32;34914;-81
2022/02/03 10:54:12;;;;;;;;;;;;;;;9.34;43.12;100484.25;4427935;32;34791;-81
2022/02/03 11:10:27;;;;;;;;;;;;;;;9.08;43.42;100481.94;4432053;32;32537;-83
2022/02/03 11:12:57;;;;;;;;;;;;;;;9.44;44.38;100485.22;4415473;32;33742;-83
2022/02/03 11:15:26;;;;;;;;;;;;;;;9.37;43.12;100484.00;4395328;32;34247;-83
2022/02/03 11:17:54;;;;;;;;;;;;;;;9.76;41.39;100482.69;4430594;32;33230;-81
2022/02/03 11:20:25;;;;;;;;;;;;;;;10.00;41.29;100476.22;4407399;32;32576;-81
2022/02/03 11:23:10;;;;;;;;;;;;;;;9.83;40.72;100473.25;4402839;32;33650;-82
2022/02/03 11:34:27;;;;;;;;;;;;;;;10.30;40.90;100456.97;4430600;32;33823;-83
2022/02/03 11:40:21;;;;;;;;;;;;;;;10.36;40.05;100446.66;4417318;32;33127;-82
2022/02/03 11:50:59;;;;;;;;;;;;;;;10.33;39.01;100456.72;4430002;32;33339;-82
2022/02/03 11:57:32;;;;;;;;;;;;;;;10.74;38.13;100457.59;4411240;32;34369;-83
2022/02/03 12:16:26;;;;;;;;;;;;;;;10.74;37.34;100446.97;4392182;32;33105;-82
2022/02/03 12:19:10;;;;;;;;;;;;;;;10.65;36.59;100446.91;4392355;32;34424;-83
2022/02/03 12:24:31;;;;;;;;;;;;;;;10.74;37.62;100462.94;4386266;32;33764;-82
2022/02/03 12:29:42;;;;;;;;;;;;;;;10.85;38.18;100456.72;4380910;32;32644;-82
2022/02/03 12:40:19;;;;;;;;;;;;;;;10.83;38.06;100437.34;4417747;32;33157;-81
2022/02/03 12:42:55;;;;;;;;;;;;;;;10.88;37.50;100437.81;4444446;32;35688;-82
2022/02/03 12:45:24;;;;;;;;;;;;;;;10.84;35.73;100444.37;4422437;32;34238;-82
2022/02/03 12:48:00;;;;;;;;;;;;;;;11.02;36.67;100438.31;4417948;32;31894;-82
2022/02/03 12:50:28;;;;;;;;;;;;;;;10.88;37.20;100443.13;4416930;32;33014;-82
2022/02/03 12:52:58;;;;;;;;;;;;;;;10.98;36.52;100447.56;4412019;32;34444;-83
2022/02/03 12:55:39;;;;;;;;;;;;;;;10.97;37.75;100440.53;4427069;32;34886;-81
2022/02/03 12:58:12;;;;;;;;;;;;;;;11.18;36.30;100453.81;4415959;32;32076;-81
2022/02/03 13:00:51;;;;;;;;;;;;;;;10.95;37.13;100453.13;4429876;32;34052;-81
2022/02/03 13:03:27;;;;;;;;;;;;;;;11.31;36.62;100454.47;4444410;32;35074;-82
2022/02/03 13:05:56;;;;;;;;;;;;;;;11.80;36.37;100452.69;4444094;32;34619;-83
2022/02/03 13:09:03;;;;;;;;;;;;;;;11.83;34.74;100447.94;4410702;32;32675;-81
2022/02/03 13:16:51;;;;;;;;;;;;;;;11.87;35.69;100440.50;4392347;32;33391;-83
2022/02/03 13:19:27;;;;;;;;;;;;;;;11.75;34.96;100437.09;4385075;32;31996;-82
2022/02/03 13:25:03;;;;;;;;;;;;;;;12.05;35.08;100438.88;4405977;32;35988;-82
2022/02/03 13:27:39;;;;;;;;;;;;;;;12.23;35.32;100438.06;4398957;32;34307;-82
2022/02/03 13:30:28;;;;;;;;;;;;;;;12.55;34.83;100432.47;4392612;32;32455;-85
2022/02/03 13:32:59;;;;;;;;;;;;;;;12.86;33.90;100436.63;4400530;32;33858;-82
2022/02/03 13:35:42;;;;;;;;;;;;;;;12.87;34.41;100432.97;4375432;32;34195;-82
2022/02/03 13:38:24;;;;;;;;;;;;;;;12.75;35.10;100437.63;4404187;32;34214;-83
2022/02/03 13:41:14;;;;;;;;;;;;;;;12.79;33.11;100433.69;4402644;32;32855;-82
2022/02/03 13:44:05;;;;;;;;;;;;;;;13.73;32.00;100431.72;4394924;32;35099;-82
2022/02/03 13:46:38;;;;;;;;;;;;;;;14.51;30.46;100424.72;4410339;32;34980;-85
2022/02/03 13:49:12;;;;;;;;;;;;;;;14.47;30.24;100423.31;4425288;32;34666;-83
2022/02/03 13:51:41;;;;;;;;;;;;;;;15.48;28.85;100413.69;4402906;32;34104;-83
2022/02/03 13:54:31;;;;;;;;;;;;;;;16.38;27.43;100416.50;4431057;32;34123;-84
2022/02/03 14:22:14;;;;;;;;;;;;;;;15.88;28.47;100427.25;4385385;32;33957;-84
2022/02/03 14:27:49;;;;;;;;;;;;;;;14.64;29.48;100425.16;4383637;32;34124;-81
2022/02/03 14:30:23;;;;;;;;;;;;;;;14.25;29.31;100414.91;4383454;32;34641;-82
2022/02/03 14:32:57;;;;;;;;;;;;;;;13.90;30.29;100427.37;4384689;32;35453;-81
2022/02/03 14:35:25;;;;;;;;;;;;;;;13.63;30.79;100420.22;4383594;32;31909;-82
2022/02/03 14:42:59;;;;;;;;;;;;;;;14.17;30.36;100420.19;4418980;32;34452;-82
2022/02/03 14:45:27;;;;;;;;;;;;;;;13.81;31.19;100428.28;4430672;32;32636;-81
2022/02/03 14:47:55;;;;;;;;;;;;;;;13.74;30.89;100420.03;4423990;32;34699;-84
2022/02/03 14:50:23;;;;;;;;;;;;;;;13.63;30.98;100417.56;4430580;32;34158;-84
2022/02/03 14:52:58;;;;;;;;;;;;;;;13.78;30.73;100420.56;4431577;32;34680;-81
2022/02/03 15:00:47;;;;;;;;;;;;;;;13.85;30.57;100429.66;4427595;32;34927;-81
2022/02/03 15:03:28;;;;;;;;;;;;;;;13.50;31.49;100429.56;4423160;32;35411;-83
2022/02/03 15:06:04;;;;;;;;;;;;;;;13.94;31.17;100421.59;4444484;32;33067;-83
2022/02/03 15:11:14;;;;;;;;;;;;;;;14.05;31.03;100416.03;4432143;32;36194;-82
2022/02/03 15:13:45;;;;;;;;;;;;;;;14.02;30.94;100428.84;4420050;32;33226;-82
2022/02/03 15:16:14;;;;;;;;;;;;;;;14.02;30.55;100423.50;4419781;32;32636;-82
2022/02/03 15:19:02;;;;;;;;;;;;;;;14.02;31.08;100424.34;4414155;32;33963;-82
2022/02/03 15:21:30;;;;;;;;;;;;;;;14.05;30.87;100426.72;4418078;32;33835;-84
2022/02/03 15:23:58;;;;;;;;;;;;;;;13.95;31.24;100417.91;4418421;32;34594;-81
2022/02/03 15:26:29;;;;;;;;;;;;;;;14.03;31.17;100414.47;4431396;32;32981;-81
2022/02/03 15:28:58;;;;;;;;;;;;;;;14.02;30.90;100419.00;4419583;32;33644;-80
2022/02/03 15:31:30;;;;;;;;;;;;;;;13.97;31.29;100409.75;4418787;32;34315;-81
2022/02/03 15:34:14;;;;;;;;;;;;;;;13.59;31.35;100402.78;4431991;32;33910;-81
2022/02/03 15:36:48;;;;;;;;;;;;;;;13.34;31.61;100406.16;4415053;32;33450;-83
2022/02/03 15:39:21;;;;;;;;;;;;;;;13.08;32.02;100406.94;4432311;32;33826;-81
2022/02/03 15:41:52;;;;;;;;;;;;;;;12.83;32.53;100403.03;4424228;32;34524;-81
2022/02/03 15:44:23;;;;;;;;;;;;;;;12.75;32.96;100402.91;4398805;32;33426;-82
2022/02/03 15:47:05;;;;;;;;;;;;;;;12.29;34.01;100418.81;4434109;32;31689;-82
2022/02/03 16:19:09;;;;;;;;;;;;;;;9.94;38.07;100420.91;4367742;32;32821;-80
2022/02/03 16:21:43;;;;;;;;;;;;;;;9.93;38.24;100413.06;4379487;32;32983;-81
2022/02/03 16:24:24;;;;;;;;;;;;;;;10.05;37.79;100420.06;4379634;32;34607;-80
2022/02/03 16:54:39;;;;;;;;;;;;;;;7.00;44.61;100415.41;4375962;32;34068;-82
2022/02/03 16:57:17;;;;;;;;;;;;;;;7.30;43.92;100407.97;4375468;32;33247;-81
2022/02/03 16:59:59;;;;;;;;;;;;;;;7.37;43.94;100399.47;4348926;32;781777;-82
2022/02/03 17:02:47;;;;;;;;;;;;;;;7.66;43.23;100398.22;4369418;32;33818;-84
2022/02/03 17:05:15;;;;;;;;;;;;;;;7.68;43.29;100398.97;4368732;32;32521;-87
2022/02/03 17:07:43;;;;;;;;;;;;;;;7.73;43.10;100394.16;4373854;32;33657;-83
2022/02/03 17:10:10;;;;;;;;;;;;;;;7.72;42.79;100395.12;4370047;32;34522;-80
2022/02/03 17:12:38;;;;;;;;;;;;;;;7.58;43.08;100397.09;4347818;32;33801;-82
2022/02/03 17:15:06;;;;;;;;;;;;;;;7.53;43.01;100392.13;4374260;32;34086;-84
2022/02/03 17:17:33;;;;;;;;;;;;;;;7.44;43.11;100400.72;4371126;32;34787;-82
2022/02/03 17:20:01;;;;;;;;;;;;;;;7.21;43.65;100398.88;4374837;32;35619;-81
2022/02/03 17:22:34;;;;;;;;;;;;;;;7.24;43.85;100392.50;4376228;32;34526;-81
2022/02/03 17:25:08;;;;;;;;;;;;;;;7.16;43.94;100403.63;4381887;32;32884;-80
2022/02/03 17:27:45;;;;;;;;;;;;;;;7.14;43.78;100394.13;4368705;32;33001;-80
2022/02/03 17:30:22;;;;;;;;;;;;;;;6.94;44.37;100402.59;4376312;32;33180;-80
2022/02/03 18:08:47;;;;;;;;;;;;;;;5.87;46.31;100423.16;4352258;32;32107;-82
2022/02/03 18:30:45;;;;;;;;;;;;;;;5.11;48.73;100371.84;4384031;32;33333;-82
2022/02/03 20:15:25;;;;;;;;;;;;;;;4.92;51.48;100332.59;4324796;33;32302;-86
2022/02/03 20:46:30;;;;;;;;;;;;;;;5.02;51.32;100290.69;4251648;33;35842;-86
2022/02/03 21:02:08;;;;;;;;;;;;;;;5.11;50.54;100284.84;4301101;33;34154;-83
2022/02/03 21:05:20;;;;;;;;;;;;;;;4.96;50.97;100283.16;4300069;33;31753;-84
2022/02/03 21:21:25;;;;;;;;;;;;;;;5.05;50.98;100279.94;4284942;33;34884;-82
2022/02/03 21:27:54;;;;;;;;;;;;;;;5.03;50.98;100282.69;4281958;33;34689;-81
2022/02/03 21:33:45;;;;;;;;;;;;;;;;;;;;;
2022/02/03 21:40:13;;;;;;;;;;;;;;;4.77;51.93;100269.44;4281836;33;34497;-82
2022/02/03 21:49:12;;;;;;;;;;;;;;;4.71;52.70;100260.16;4287053;33;34618;-83
2022/02/03 21:52:32;;;;;;;;;;;;;;;;;;;;;
2022/02/03 22:01:20;;;;;;;;;;;;;;;;;;;;;
2022/02/03 22:52:19;;;;;;;;;;;;;;;;;;;;;
2022/02/03 23:02:21;;;;;;;;;;;;;;;4.80;52.83;100196.31;4329489;33;34024;-83
2022/02/03 23:15:01;;;;;;;;;;;;;;;;;;;;;
2022/02/03 23:17:51;;;;;;;;;;;;;;;5.36;51.95;100187.34;4309256;33;34943;-82
2022/02/03 23:36:35;;;;;;;;;;;;;;;5.09;52.15;100174.16;4294308;33;32909;-81
2022/02/03 23:40:06;;;;;;;;;;;;;;;5.59;50.07;100161.91;4301284;33;34289;-81
